»·PEaware :: DAL1082 KPDX-KSEA

DAL1082 :: KPDX-KSEA

FLIGHT INFORMATION

Flight Status: Arrived
Operator:
Delta Air Lines
More flights by this operator :: More flights under this callsign
Pilot: Paul B. (23264)
Aircraft: BOEING 737-800
(B738)
More flights by this aircraft type
Origin: KPDX Portland Intl
United States
Destination: KSEA Seattle-Tacoma Intl
United States
More flights between these airports :: More routes between these airports
Route: +PTLD1 COUGA KRIEG HAWKZ7
File this flight plan on PilotEdge
Remarks:
Altitude:
(Current/Filed)
24,000ft
Speed:
(Current/Filed)
450kts
Departed: 11-Jan-20 02:36 PM
Arrived: 11-Jan-20 03:12 PM
Distance/Time
Traveled:
112nm/0:36
Distance/Time
To Go:
Arrived

Flight Plot

Page will automatically refresh every two minutes.

Flight plan parsing failed; only flown route is shown


Map Options




Map Legend


Flown Route
Filed Route
Departure Airport
Arrival Airport
Navaid (VOR, NDB)
Fix

Horizontal Profiles

Position Reports

Time Latitude Longitude Heading Altitude Ground
Speed
11-Jan-20 14:10 45.587562 -122.594293 52 34ft 0kts
11-Jan-20 14:11 45.587563 -122.594293 52 34ft 0kts
11-Jan-20 14:12 45.587563 -122.594294 52 34ft 0kts
11-Jan-20 14:13 45.587562 -122.594293 52 34ft 0kts
11-Jan-20 14:14 45.587563 -122.594294 52 34ft 0kts
11-Jan-20 14:15 45.587562 -122.594293 52 34ft 0kts
11-Jan-20 14:16 45.587562 -122.594293 52 34ft 0kts
11-Jan-20 14:17 45.587562 -122.594293 52 34ft 0kts
11-Jan-20 14:18 45.587563 -122.594294 52 34ft 0kts
11-Jan-20 14:19 45.587563 -122.594294 52 34ft 0kts
11-Jan-20 14:20 45.587562 -122.594293 52 34ft 0kts
11-Jan-20 14:21 45.587562 -122.594293 52 34ft 0kts
11-Jan-20 14:22 45.587562 -122.594293 52 34ft 0kts
11-Jan-20 14:23 45.587562 -122.594293 52 34ft 0kts
11-Jan-20 14:24 45.587562 -122.594293 52 34ft 0kts
11-Jan-20 14:25 45.587449 -122.594506 51 34ft 2kts
11-Jan-20 14:26 45.587102 -122.595150 51 34ft 0kts
11-Jan-20 14:27 45.587102 -122.595150 51 34ft 0kts
11-Jan-20 14:28 45.587102 -122.595150 51 34ft 0kts
11-Jan-20 14:29 45.583921 -122.589455 119 34ft 26kts
11-Jan-20 14:30 45.581543 -122.583554 160 34ft 0kts
11-Jan-20 14:31 45.581543 -122.583554 160 34ft 0kts
11-Jan-20 14:32 45.581543 -122.583554 160 34ft 0kts
11-Jan-20 14:33 45.581543 -122.583554 160 34ft 0kts
11-Jan-20 14:34 45.580778 -122.584602 300 34ft 5kts
11-Jan-20 14:35 45.594976 -122.619235 297 950ft 182kts
11-Jan-20 14:36 45.623647 -122.689838 295 3568ft 224kts
11-Jan-20 14:37 45.660885 -122.757181 348 6348ft 242kts
11-Jan-20 14:38 45.728934 -122.747692 0 9205ft 256kts
11-Jan-20 14:39 45.800274 -122.733890 359 12355ft 259kts
11-Jan-20 14:40 45.871450 -122.720062 358 15571ft 258kts
11-Jan-20 14:41 45.941303 -122.706503 357 18411ft 258kts
11-Jan-20 14:42 46.012442 -122.692793 357 20894ft 263kts
11-Jan-20 14:43 46.085034 -122.679146 352 23005ft 269kts
11-Jan-20 14:44 46.159857 -122.690744 344 24142ft 294kts
11-Jan-20 14:45 46.247500 -122.708003 345 24144ft 340kts
11-Jan-20 14:46 46.341406 -122.723291 351 24140ft 343kts
11-Jan-20 14:47 46.436599 -122.726330 350 22507ft 335kts
11-Jan-20 14:48 46.527340 -122.729618 350 20521ft 322kts
11-Jan-20 14:49 46.615807 -122.732844 350 18709ft 318kts
11-Jan-20 14:50 46.703022 -122.735989 351 16921ft 314kts
11-Jan-20 14:51 46.788756 -122.724571 17 15152ft 329kts
11-Jan-20 14:52 46.846689 -122.665933 31 13794ft 335kts
11-Jan-20 14:53 46.903804 -122.600576 30 12909ft 304kts
11-Jan-20 14:54 46.976469 -122.544904 9 12901ft 299kts
11-Jan-20 14:55 47.053434 -122.511588 10 12896ft 302kts
11-Jan-20 14:56 47.128498 -122.491178 1 11441ft 297kts
11-Jan-20 14:57 47.207940 -122.477174 0 10375ft 289kts
11-Jan-20 14:58 47.286914 -122.465297 0 9469ft 264kts
11-Jan-20 14:59 47.366642 -122.454776 354 8875ft 260kts
11-Jan-20 15:00 47.444701 -122.455334 355 7359ft 267kts
11-Jan-20 15:01 47.515522 -122.455286 356 5888ft 236kts
11-Jan-20 15:02 47.576073 -122.442129 5 5060ft 237kts
11-Jan-20 15:03 47.634874 -122.429893 5 3888ft 228kts
11-Jan-20 15:04 47.697714 -122.414184 26 3861ft 234kts
11-Jan-20 15:05 47.712753 -122.344252 132 3871ft 211kts
11-Jan-20 15:06 47.655922 -122.306884 180 3733ft 209kts
11-Jan-20 15:08 47.588259 -122.306477 183 2900ft 192kts
11-Jan-20 15:09 47.539880 -122.306923 183 1963ft 141kts
11-Jan-20 15:10 47.502132 -122.307361 182 1228ft 138kts
11-Jan-20 15:11 47.464301 -122.307692 183 493ft 130kts
11-Jan-20 15:12 47.446029 -122.307613 129 444ft 11kts
11-Jan-20 15:13 47.447704 -122.305726 48 444ft 11kts
11-Jan-20 15:14 47.446946 -122.303583 218 444ft 7kts
11-Jan-20 15:15 47.446705 -122.303867 218 444ft 0kts

Navigation Log

Ident Type
Flight plan parsing failed, navigation log unavailable